sensor_id;sensor_type;location;lat;lon;timestamp;P1;durP1;ratioP1;P2;durP2;ratioP2
50363;SDS011;36272;59.400;17.982;2023-06-26T00:03:13;5.57;;;3.92;;
50363;SDS011;36272;59.400;17.982;2023-06-26T00:08:16;7.60;;;4.20;;
50363;SDS011;36272;59.400;17.982;2023-06-26T00:13:17;8.35;;;4.00;;
50363;SDS011;36272;59.400;17.982;2023-06-26T00:18:19;9.38;;;4.15;;
50363;SDS011;36272;59.400;17.982;2023-06-26T00:23:21;4.93;;;3.63;;
50363;SDS011;36272;59.400;17.982;2023-06-26T00:28:22;7.47;;;3.75;;
50363;SDS011;36272;59.400;17.982;2023-06-26T00:33:24;9.00;;;3.95;;
50363;SDS011;36272;59.400;17.982;2023-06-26T00:38:25;8.00;;;3.58;;
50363;SDS011;36272;59.400;17.982;2023-06-26T00:43:27;6.38;;;3.83;;
50363;SDS011;36272;59.400;17.982;2023-06-26T00:48:29;5.53;;;3.85;;
50363;SDS011;36272;59.400;17.982;2023-06-26T00:53:31;6.80;;;3.88;;
50363;SDS011;36272;59.400;17.982;2023-06-26T00:58:33;7.22;;;3.97;;
50363;SDS011;36272;59.400;17.982;2023-06-26T01:03:35;5.75;;;4.10;;
50363;SDS011;36272;59.400;17.982;2023-06-26T01:08:41;8.35;;;4.47;;
50363;SDS011;36272;59.400;17.982;2023-06-26T01:13:44;8.90;;;4.60;;
50363;SDS011;36272;59.400;17.982;2023-06-26T01:18:46;5.68;;;4.32;;
50363;SDS011;36272;59.400;17.982;2023-06-26T01:24:05;8.52;;;4.60;;
50363;SDS011;36272;59.400;17.982;2023-06-26T01:29:13;5.97;;;3.95;;
50363;SDS011;36272;59.400;17.982;2023-06-26T01:34:18;8.07;;;3.85;;
50363;SDS011;36272;59.400;17.982;2023-06-26T01:39:20;6.75;;;4.82;;
50363;SDS011;36272;59.400;17.982;2023-06-26T01:44:32;6.30;;;4.47;;
50363;SDS011;36272;59.400;17.982;2023-06-26T01:49:49;7.05;;;4.50;;
50363;SDS011;36272;59.400;17.982;2023-06-26T02:00:03;7.18;;;4.53;;
50363;SDS011;36272;59.400;17.982;2023-06-26T02:05:07;6.35;;;4.57;;
50363;SDS011;36272;59.400;17.982;2023-06-26T02:10:14;6.65;;;4.43;;
50363;SDS011;36272;59.400;17.982;2023-06-26T02:15:16;10.30;;;4.72;;
50363;SDS011;36272;59.400;17.982;2023-06-26T02:20:17;6.25;;;4.90;;
50363;SDS011;36272;59.400;17.982;2023-06-26T02:25:19;8.30;;;4.80;;
50363;SDS011;36272;59.400;17.982;2023-06-26T02:30:21;8.57;;;4.93;;
50363;SDS011;36272;59.400;17.982;2023-06-26T02:35:22;8.90;;;4.32;;
50363;SDS011;36272;59.400;17.982;2023-06-26T02:40:24;10.02;;;5.00;;
50363;SDS011;36272;59.400;17.982;2023-06-26T02:45:26;6.35;;;4.75;;
50363;SDS011;36272;59.400;17.982;2023-06-26T02:50:27;9.85;;;4.90;;
50363;SDS011;36272;59.400;17.982;2023-06-26T02:55:29;7.97;;;5.30;;
50363;SDS011;36272;59.400;17.982;2023-06-26T03:00:31;6.45;;;4.88;;
50363;SDS011;36272;59.400;17.982;2023-06-26T03:05:32;6.60;;;4.80;;
50363;SDS011;36272;59.400;17.982;2023-06-26T03:10:34;6.38;;;4.80;;
50363;SDS011;36272;59.400;17.982;2023-06-26T03:15:35;7.03;;;5.00;;
50363;SDS011;36272;59.400;17.982;2023-06-26T03:20:37;10.88;;;5.70;;
50363;SDS011;36272;59.400;17.982;2023-06-26T03:25:39;10.90;;;5.40;;
50363;SDS011;36272;59.400;17.982;2023-06-26T03:30:40;7.90;;;5.43;;
50363;SDS011;36272;59.400;17.982;2023-06-26T03:35:42;6.40;;;5.10;;
50363;SDS011;36272;59.400;17.982;2023-06-26T03:40:44;7.60;;;5.47;;
50363;SDS011;36272;59.400;17.982;2023-06-26T03:45:45;10.65;;;5.78;;
50363;SDS011;36272;59.400;17.982;2023-06-26T03:50:47;8.05;;;5.75;;
50363;SDS011;36272;59.400;17.982;2023-06-26T03:55:49;9.30;;;6.50;;
50363;SDS011;36272;59.400;17.982;2023-06-26T04:00:51;10.35;;;6.72;;
50363;SDS011;36272;59.400;17.982;2023-06-26T04:05:52;10.60;;;6.45;;
50363;SDS011;36272;59.400;17.982;2023-06-26T04:10:54;12.05;;;5.70;;
50363;SDS011;36272;59.400;17.982;2023-06-26T04:15:58;9.82;;;6.13;;
50363;SDS011;36272;59.400;17.982;2023-06-26T04:21:04;9.63;;;5.60;;
50363;SDS011;36272;59.400;17.982;2023-06-26T04:26:08;9.27;;;5.70;;
50363;SDS011;36272;59.400;17.982;2023-06-26T04:31:10;9.10;;;6.25;;
50363;SDS011;36272;59.400;17.982;2023-06-26T04:36:11;7.97;;;5.82;;
50363;SDS011;36272;59.400;17.982;2023-06-26T04:41:13;8.85;;;5.47;;
50363;SDS011;36272;59.400;17.982;2023-06-26T04:46:15;8.90;;;5.68;;
50363;SDS011;36272;59.400;17.982;2023-06-26T04:51:17;7.00;;;5.28;;
50363;SDS011;36272;59.400;17.982;2023-06-26T04:56:22;20.15;;;5.35;;
50363;SDS011;36272;59.400;17.982;2023-06-26T05:01:23;10.10;;;5.70;;
50363;SDS011;36272;59.400;17.982;2023-06-26T05:06:25;8.10;;;5.10;;
50363;SDS011;36272;59.400;17.982;2023-06-26T05:11:27;7.30;;;4.47;;
50363;SDS011;36272;59.400;17.982;2023-06-26T05:16:28;8.60;;;4.57;;
50363;SDS011;36272;59.400;17.982;2023-06-26T05:21:31;6.55;;;4.43;;
50363;SDS011;36272;59.400;17.982;2023-06-26T05:26:33;6.55;;;4.53;;
50363;SDS011;36272;59.400;17.982;2023-06-26T05:31:35;16.38;;;4.50;;
50363;SDS011;36272;59.400;17.982;2023-06-26T05:36:42;6.68;;;4.70;;
50363;SDS011;36272;59.400;17.982;2023-06-26T05:41:44;6.43;;;4.05;;
50363;SDS011;36272;59.400;17.982;2023-06-26T05:46:46;6.88;;;3.95;;
50363;SDS011;36272;59.400;17.982;2023-06-26T05:51:48;6.88;;;3.90;;
50363;SDS011;36272;59.400;17.982;2023-06-26T05:56:50;4.85;;;3.90;;
50363;SDS011;36272;59.400;17.982;2023-06-26T06:01:57;6.65;;;3.65;;
50363;SDS011;36272;59.400;17.982;2023-06-26T06:06:58;8.32;;;3.50;;
50363;SDS011;36272;59.400;17.982;2023-06-26T06:12:00;5.75;;;3.78;;
50363;SDS011;36272;59.400;17.982;2023-06-26T06:17:02;5.05;;;3.55;;
50363;SDS011;36272;59.400;17.982;2023-06-26T06:22:04;6.85;;;3.70;;
50363;SDS011;36272;59.400;17.982;2023-06-26T06:27:06;5.13;;;3.33;;
50363;SDS011;36272;59.400;17.982;2023-06-26T06:32:07;5.22;;;3.50;;
50363;SDS011;36272;59.400;17.982;2023-06-26T06:37:09;5.20;;;2.78;;
50363;SDS011;36272;59.400;17.982;2023-06-26T06:42:11;7.50;;;3.42;;
50363;SDS011;36272;59.400;17.982;2023-06-26T06:47:12;4.88;;;3.10;;
50363;SDS011;36272;59.400;17.982;2023-06-26T06:52:14;4.40;;;2.88;;
50363;SDS011;36272;59.400;17.982;2023-06-26T06:57:15;5.00;;;2.72;;
50363;SDS011;36272;59.400;17.982;2023-06-26T07:02:17;6.53;;;2.65;;
50363;SDS011;36272;59.400;17.982;2023-06-26T07:07:19;7.15;;;3.58;;
50363;SDS011;36272;59.400;17.982;2023-06-26T07:12:21;3.88;;;2.55;;
50363;SDS011;36272;59.400;17.982;2023-06-26T07:17:22;3.10;;;2.58;;
50363;SDS011;36272;59.400;17.982;2023-06-26T07:22:24;6.00;;;2.60;;
50363;SDS011;36272;59.400;17.982;2023-06-26T07:27:26;7.63;;;2.97;;
50363;SDS011;36272;59.400;17.982;2023-06-26T07:32:28;4.85;;;2.70;;
50363;SDS011;36272;59.400;17.982;2023-06-26T07:37:29;4.68;;;2.30;;
50363;SDS011;36272;59.400;17.982;2023-06-26T07:42:31;9.27;;;2.55;;
50363;SDS011;36272;59.400;17.982;2023-06-26T07:47:32;5.97;;;2.63;;
50363;SDS011;36272;59.400;17.982;2023-06-26T07:52:34;7.28;;;3.15;;
50363;SDS011;36272;59.400;17.982;2023-06-26T07:57:36;6.78;;;2.50;;
50363;SDS011;36272;59.400;17.982;2023-06-26T08:02:38;4.15;;;2.72;;
50363;SDS011;36272;59.400;17.982;2023-06-26T08:07:39;4.82;;;2.70;;
50363;SDS011;36272;59.400;17.982;2023-06-26T08:12:41;3.08;;;2.55;;
50363;SDS011;36272;59.400;17.982;2023-06-26T08:17:46;3.55;;;2.53;;
50363;SDS011;36272;59.400;17.982;2023-06-26T08:22:48;4.32;;;2.55;;
50363;SDS011;36272;59.400;17.982;2023-06-26T08:27:52;3.72;;;2.60;;
50363;SDS011;36272;59.400;17.982;2023-06-26T08:32:55;4.75;;;2.33;;
50363;SDS011;36272;59.400;17.982;2023-06-26T08:37:57;4.32;;;2.25;;
50363;SDS011;36272;59.400;17.982;2023-06-26T08:42:58;4.50;;;2.50;;
50363;SDS011;36272;59.400;17.982;2023-06-26T08:48:01;3.97;;;2.20;;
50363;SDS011;36272;59.400;17.982;2023-06-26T08:53:16;5.70;;;2.17;;
50363;SDS011;36272;59.400;17.982;2023-06-26T08:58:29;6.20;;;2.43;;
50363;SDS011;36272;59.400;17.982;2023-06-26T09:03:32;15.52;;;2.50;;
50363;SDS011;36272;59.400;17.982;2023-06-26T09:08:34;4.25;;;2.58;;
50363;SDS011;36272;59.400;17.982;2023-06-26T09:13:36;2.88;;;2.30;;
50363;SDS011;36272;59.400;17.982;2023-06-26T09:18:40;3.35;;;2.10;;
50363;SDS011;36272;59.400;17.982;2023-06-26T09:23:43;4.13;;;2.35;;
50363;SDS011;36272;59.400;17.982;2023-06-26T09:28:45;3.85;;;2.60;;
50363;SDS011;36272;59.400;17.982;2023-06-26T09:33:47;3.25;;;1.90;;
50363;SDS011;36272;59.400;17.982;2023-06-26T09:38:51;5.75;;;1.80;;
50363;SDS011;36272;59.400;17.982;2023-06-26T09:43:53;6.40;;;2.65;;
50363;SDS011;36272;59.400;17.982;2023-06-26T09:49:01;6.32;;;2.42;;
50363;SDS011;36272;59.400;17.982;2023-06-26T09:54:08;5.43;;;2.13;;
50363;SDS011;36272;59.400;17.982;2023-06-26T09:59:13;3.63;;;2.30;;
50363;SDS011;36272;59.400;17.982;2023-06-26T10:04:14;2.15;;;1.75;;
50363;SDS011;36272;59.400;17.982;2023-06-26T10:09:17;3.97;;;2.10;;
50363;SDS011;36272;59.400;17.982;2023-06-26T10:14:20;6.45;;;2.30;;
50363;SDS011;36272;59.400;17.982;2023-06-26T10:19:23;4.32;;;2.22;;
50363;SDS011;36272;59.400;17.982;2023-06-26T10:24:28;5.00;;;2.15;;
50363;SDS011;36272;59.400;17.982;2023-06-26T10:29:32;3.58;;;2.17;;
50363;SDS011;36272;59.400;17.982;2023-06-26T10:34:36;2.80;;;1.98;;
50363;SDS011;36272;59.400;17.982;2023-06-26T10:39:48;3.85;;;2.20;;
50363;SDS011;36272;59.400;17.982;2023-06-26T10:44:51;15.80;;;2.42;;
50363;SDS011;36272;59.400;17.982;2023-06-26T10:49:53;3.00;;;2.10;;
50363;SDS011;36272;59.400;17.982;2023-06-26T10:54:54;4.60;;;2.00;;
50363;SDS011;36272;59.400;17.982;2023-06-26T11:00:09;3.13;;;1.70;;
50363;SDS011;36272;59.400;17.982;2023-06-26T11:05:12;3.83;;;2.10;;
50363;SDS011;36272;59.400;17.982;2023-06-26T11:16:04;2.30;;;1.90;;
50363;SDS011;36272;59.400;17.982;2023-06-26T11:21:10;9.18;;;1.45;;
50363;SDS011;36272;59.400;17.982;2023-06-26T11:26:17;3.85;;;1.75;;
50363;SDS011;36272;59.400;17.982;2023-06-26T11:31:23;1.58;;;1.40;;
50363;SDS011;36272;59.400;17.982;2023-06-26T11:36:35;3.90;;;1.63;;
50363;SDS011;36272;59.400;17.982;2023-06-26T11:41:38;2.10;;;1.23;;
50363;SDS011;36272;59.400;17.982;2023-06-26T11:46:41;1.20;;;1.10;;
50363;SDS011;36272;59.400;17.982;2023-06-26T11:51:43;1.30;;;1.20;;
50363;SDS011;36272;59.400;17.982;2023-06-26T11:56:57;1.67;;;1.30;;
50363;SDS011;36272;59.400;17.982;2023-06-26T12:02:00;1.08;;;1.00;;
50363;SDS011;36272;59.400;17.982;2023-06-26T12:07:06;1.52;;;1.10;;
50363;SDS011;36272;59.400;17.982;2023-06-26T12:12:10;1.13;;;1.02;;
50363;SDS011;36272;59.400;17.982;2023-06-26T12:17:13;2.78;;;1.33;;
50363;SDS011;36272;59.400;17.982;2023-06-26T12:22:15;4.43;;;1.08;;
50363;SDS011;36272;59.400;17.982;2023-06-26T12:27:20;4.10;;;1.02;;
50363;SDS011;36272;59.400;17.982;2023-06-26T12:32:22;1.03;;;1.00;;
50363;SDS011;36272;59.400;17.982;2023-06-26T12:37:26;1.17;;;0.88;;
50363;SDS011;36272;59.400;17.982;2023-06-26T12:42:28;1.17;;;1.07;;
50363;SDS011;36272;59.400;17.982;2023-06-26T12:52:32;2.03;;;0.60;;
50363;SDS011;36272;59.400;17.982;2023-06-26T12:57:34;3.95;;;0.80;;
50363;SDS011;36272;59.400;17.982;2023-06-26T13:02:36;1.15;;;1.00;;
50363;SDS011;36272;59.400;17.982;2023-06-26T13:07:37;0.67;;;0.67;;
50363;SDS011;36272;59.400;17.982;2023-06-26T13:12:39;1.73;;;0.83;;
50363;SDS011;36272;59.400;17.982;2023-06-26T13:17:40;1.10;;;1.00;;
50363;SDS011;36272;59.400;17.982;2023-06-26T13:22:42;0.70;;;0.70;;
50363;SDS011;36272;59.400;17.982;2023-06-26T13:27:43;0.80;;;0.67;;
50363;SDS011;36272;59.400;17.982;2023-06-26T13:32:45;1.30;;;1.20;;
50363;SDS011;36272;59.400;17.982;2023-06-26T13:37:47;0.85;;;0.80;;
50363;SDS011;36272;59.400;17.982;2023-06-26T13:42:49;5.70;;;1.10;;
50363;SDS011;36272;59.400;17.982;2023-06-26T13:47:50;2.85;;;0.88;;
50363;SDS011;36272;59.400;17.982;2023-06-26T13:52:52;1.40;;;1.02;;
50363;SDS011;36272;59.400;17.982;2023-06-26T13:57:53;1.10;;;1.00;;
50363;SDS011;36272;59.400;17.982;2023-06-26T14:02:56;1.10;;;1.00;;
50363;SDS011;36272;59.400;17.982;2023-06-26T14:07:58;14.93;;;1.80;;
50363;SDS011;36272;59.400;17.982;2023-06-26T14:13:00;3.80;;;1.10;;
50363;SDS011;36272;59.400;17.982;2023-06-26T14:18:02;1.27;;;1.10;;
50363;SDS011;36272;59.400;17.982;2023-06-26T14:28:05;2.33;;;1.05;;
50363;SDS011;36272;59.400;17.982;2023-06-26T14:33:07;3.45;;;1.10;;
50363;SDS011;36272;59.400;17.982;2023-06-26T14:38:08;9.18;;;1.40;;
50363;SDS011;36272;59.400;17.982;2023-06-26T14:43:10;1.52;;;1.25;;
50363;SDS011;36272;59.400;17.982;2023-06-26T14:48:12;3.80;;;2.03;;
50363;SDS011;36272;59.400;17.982;2023-06-26T14:53:13;2.40;;;1.40;;
50363;SDS011;36272;59.400;17.982;2023-06-26T14:58:15;1.20;;;1.10;;
50363;SDS011;36272;59.400;17.982;2023-06-26T15:03:17;1.90;;;1.30;;
50363;SDS011;36272;59.400;17.982;2023-06-26T15:08:18;3.83;;;1.65;;
50363;SDS011;36272;59.400;17.982;2023-06-26T15:13:20;2.85;;;1.70;;
50363;SDS011;36272;59.400;17.982;2023-06-26T15:18:22;1.85;;;1.38;;
50363;SDS011;36272;59.400;17.982;2023-06-26T15:23:23;1.70;;;1.60;;
50363;SDS011;36272;59.400;17.982;2023-06-26T15:28:25;1.20;;;1.10;;
50363;SDS011;36272;59.400;17.982;2023-06-26T15:33:27;1.60;;;1.40;;
50363;SDS011;36272;59.400;17.982;2023-06-26T15:38:29;7.95;;;1.58;;
50363;SDS011;36272;59.400;17.982;2023-06-26T15:43:31;2.08;;;1.50;;
50363;SDS011;36272;59.400;17.982;2023-06-26T15:53:36;1.63;;;1.40;;
50363;SDS011;36272;59.400;17.982;2023-06-26T15:58:39;1.65;;;1.50;;
50363;SDS011;36272;59.400;17.982;2023-06-26T16:03:46;3.05;;;1.40;;
50363;SDS011;36272;59.400;17.982;2023-06-26T16:08:48;1.98;;;1.40;;
50363;SDS011;36272;59.400;17.982;2023-06-26T16:13:50;3.47;;;1.33;;
50363;SDS011;36272;59.400;17.982;2023-06-26T16:18:53;1.67;;;1.43;;
50363;SDS011;36272;59.400;17.982;2023-06-26T16:23:54;2.85;;;1.52;;
50363;SDS011;36272;59.400;17.982;2023-06-26T16:28:56;1.48;;;1.30;;
50363;SDS011;36272;59.400;17.982;2023-06-26T16:33:58;1.60;;;1.50;;
50363;SDS011;36272;59.400;17.982;2023-06-26T16:39:00;1.67;;;1.40;;
50363;SDS011;36272;59.400;17.982;2023-06-26T16:44:02;5.78;;;1.75;;
50363;SDS011;36272;59.400;17.982;2023-06-26T16:49:04;2.83;;;2.05;;
50363;SDS011;36272;59.400;17.982;2023-06-26T16:54:06;4.30;;;2.15;;
50363;SDS011;36272;59.400;17.982;2023-06-26T16:59:07;15.88;;;2.25;;
50363;SDS011;36272;59.400;17.982;2023-06-26T17:04:09;5.00;;;2.00;;
50363;SDS011;36272;59.400;17.982;2023-06-26T17:09:11;4.07;;;2.00;;
50363;SDS011;36272;59.400;17.982;2023-06-26T17:14:12;2.20;;;2.00;;
50363;SDS011;36272;59.400;17.982;2023-06-26T17:19:14;2.75;;;1.70;;
50363;SDS011;36272;59.400;17.982;2023-06-26T17:24:16;2.35;;;2.03;;
50363;SDS011;36272;59.400;17.982;2023-06-26T17:29:17;3.55;;;2.40;;
50363;SDS011;36272;59.400;17.982;2023-06-26T17:34:19;3.03;;;2.20;;
50363;SDS011;36272;59.400;17.982;2023-06-26T17:39:20;3.90;;;2.00;;
50363;SDS011;36272;59.400;17.982;2023-06-26T17:44:22;3.22;;;2.20;;
50363;SDS011;36272;59.400;17.982;2023-06-26T17:49:28;2.25;;;2.05;;
50363;SDS011;36272;59.400;17.982;2023-06-26T17:54:30;2.92;;;2.20;;
50363;SDS011;36272;59.400;17.982;2023-06-26T17:59:31;4.97;;;2.42;;
50363;SDS011;36272;59.400;17.982;2023-06-26T18:04:33;2.88;;;2.00;;
50363;SDS011;36272;59.400;17.982;2023-06-26T18:09:37;3.80;;;2.35;;
50363;SDS011;36272;59.400;17.982;2023-06-26T18:14:38;3.78;;;2.42;;
50363;SDS011;36272;59.400;17.982;2023-06-26T18:19:40;2.78;;;2.20;;
50363;SDS011;36272;59.400;17.982;2023-06-26T18:24:42;5.47;;;2.30;;
50363;SDS011;36272;59.400;17.982;2023-06-26T18:29:46;3.22;;;2.55;;
50363;SDS011;36272;59.400;17.982;2023-06-26T18:34:48;3.93;;;2.83;;
50363;SDS011;36272;59.400;17.982;2023-06-26T18:39:52;4.60;;;2.75;;
50363;SDS011;36272;59.400;17.982;2023-06-26T18:44:53;6.82;;;3.03;;
50363;SDS011;36272;59.400;17.982;2023-06-26T18:49:56;3.53;;;2.55;;
50363;SDS011;36272;59.400;17.982;2023-06-26T18:54:57;2.92;;;2.50;;
50363;SDS011;36272;59.400;17.982;2023-06-26T18:59:59;4.13;;;2.42;;
50363;SDS011;36272;59.400;17.982;2023-06-26T19:05:02;6.22;;;2.80;;
50363;SDS011;36272;59.400;17.982;2023-06-26T19:10:04;3.25;;;2.85;;
50363;SDS011;36272;59.400;17.982;2023-06-26T19:15:06;3.47;;;2.80;;
50363;SDS011;36272;59.400;17.982;2023-06-26T19:20:08;5.93;;;2.67;;
50363;SDS011;36272;59.400;17.982;2023-06-26T19:25:10;3.15;;;2.67;;
50363;SDS011;36272;59.400;17.982;2023-06-26T19:30:12;2.95;;;2.40;;
50363;SDS011;36272;59.400;17.982;2023-06-26T19:35:15;2.90;;;2.60;;
50363;SDS011;36272;59.400;17.982;2023-06-26T19:40:22;3.47;;;2.60;;
50363;SDS011;36272;59.400;17.982;2023-06-26T19:45:24;4.68;;;2.90;;
50363;SDS011;36272;59.400;17.982;2023-06-26T19:50:25;4.75;;;2.90;;
50363;SDS011;36272;59.400;17.982;2023-06-26T19:55:27;3.35;;;2.60;;
50363;SDS011;36272;59.400;17.982;2023-06-26T20:00:29;3.00;;;2.70;;
50363;SDS011;36272;59.400;17.982;2023-06-26T20:05:32;3.75;;;2.67;;
50363;SDS011;36272;59.400;17.982;2023-06-26T20:10:34;4.57;;;2.80;;
50363;SDS011;36272;59.400;17.982;2023-06-26T20:15:35;6.45;;;2.92;;
50363;SDS011;36272;59.400;17.982;2023-06-26T20:20:38;5.65;;;3.20;;
50363;SDS011;36272;59.400;17.982;2023-06-26T20:25:40;3.45;;;2.78;;
50363;SDS011;36272;59.400;17.982;2023-06-26T20:30:43;4.68;;;2.90;;
50363;SDS011;36272;59.400;17.982;2023-06-26T20:35:44;4.43;;;3.00;;
50363;SDS011;36272;59.400;17.982;2023-06-26T20:40:46;5.07;;;2.83;;
50363;SDS011;36272;59.400;17.982;2023-06-26T20:45:48;5.20;;;3.40;;
50363;SDS011;36272;59.400;17.982;2023-06-26T20:50:51;5.63;;;3.17;;
50363;SDS011;36272;59.400;17.982;2023-06-26T20:55:53;5.82;;;3.50;;
50363;SDS011;36272;59.400;17.982;2023-06-26T21:00:54;4.68;;;3.20;;
50363;SDS011;36272;59.400;17.982;2023-06-26T21:05:56;5.78;;;3.08;;
50363;SDS011;36272;59.400;17.982;2023-06-26T21:11:03;5.80;;;3.70;;
50363;SDS011;36272;59.400;17.982;2023-06-26T21:16:04;3.92;;;2.97;;
50363;SDS011;36272;59.400;17.982;2023-06-26T21:21:06;5.93;;;3.80;;
50363;SDS011;36272;59.400;17.982;2023-06-26T21:26:08;4.97;;;3.20;;
50363;SDS011;36272;59.400;17.982;2023-06-26T21:31:09;5.72;;;3.28;;
50363;SDS011;36272;59.400;17.982;2023-06-26T21:36:11;4.45;;;3.50;;
50363;SDS011;36272;59.400;17.982;2023-06-26T21:41:13;3.88;;;3.38;;
50363;SDS011;36272;59.400;17.982;2023-06-26T21:46:14;10.73;;;3.55;;
50363;SDS011;36272;59.400;17.982;2023-06-26T21:51:16;4.72;;;3.58;;
50363;SDS011;36272;59.400;17.982;2023-06-26T21:56:19;4.78;;;3.30;;
50363;SDS011;36272;59.400;17.982;2023-06-26T22:01:20;7.50;;;3.60;;
50363;SDS011;36272;59.400;17.982;2023-06-26T22:06:22;4.18;;;3.40;;
50363;SDS011;36272;59.400;17.982;2023-06-26T22:11:24;4.28;;;3.60;;
50363;SDS011;36272;59.400;17.982;2023-06-26T22:16:26;5.50;;;3.30;;
50363;SDS011;36272;59.400;17.982;2023-06-26T22:21:28;3.72;;;3.30;;
50363;SDS011;36272;59.400;17.982;2023-06-26T22:26:29;5.63;;;3.80;;
50363;SDS011;36272;59.400;17.982;2023-06-26T22:31:32;5.22;;;3.67;;
50363;SDS011;36272;59.400;17.982;2023-06-26T22:36:34;6.20;;;3.20;;
50363;SDS011;36272;59.400;17.982;2023-06-26T22:41:40;4.35;;;3.33;;
50363;SDS011;36272;59.400;17.982;2023-06-26T22:46:42;5.15;;;3.75;;
50363;SDS011;36272;59.400;17.982;2023-06-26T22:51:44;5.72;;;4.00;;
50363;SDS011;36272;59.400;17.982;2023-06-26T22:56:47;5.72;;;3.88;;
50363;SDS011;36272;59.400;17.982;2023-06-26T23:01:49;4.65;;;3.20;;
50363;SDS011;36272;59.400;17.982;2023-06-26T23:06:51;4.25;;;3.33;;
50363;SDS011;36272;59.400;17.982;2023-06-26T23:11:58;7.40;;;4.07;;
50363;SDS011;36272;59.400;17.982;2023-06-26T23:16:59;5.40;;;3.85;;
50363;SDS011;36272;59.400;17.982;2023-06-26T23:22:07;6.50;;;3.90;;
50363;SDS011;36272;59.400;17.982;2023-06-26T23:27:12;5.93;;;4.03;;
50363;SDS011;36272;59.400;17.982;2023-06-26T23:32:14;9.50;;;3.50;;
50363;SDS011;36272;59.400;17.982;2023-06-26T23:37:17;5.55;;;4.40;;
50363;SDS011;36272;59.400;17.982;2023-06-26T23:42:26;5.13;;;4.40;;
50363;SDS011;36272;59.400;17.982;2023-06-26T23:47:28;6.82;;;4.80;;
50363;SDS011;36272;59.400;17.982;2023-06-26T23:52:29;7.40;;;5.07;;
50363;SDS011;36272;59.400;17.982;2023-06-26T23:57:31;5.45;;;4.80;;
